sensor_id;sensor_type;location;lat;lon;timestamp;P1;durP1;ratioP1;P2;durP2;ratioP2
16288;SDS011;26089;43.538;5.250;2023-04-24T00:02:06;2.03;;;1.90;;
16288;SDS011;26089;43.538;5.250;2023-04-24T00:04:35;2.40;;;2.20;;
16288;SDS011;26089;43.538;5.250;2023-04-24T00:07:05;2.37;;;2.20;;
16288;SDS011;26089;43.538;5.250;2023-04-24T00:09:33;2.90;;;2.40;;
16288;SDS011;26089;43.538;5.250;2023-04-24T00:12:00;2.70;;;2.50;;
16288;SDS011;26089;43.538;5.250;2023-04-24T00:14:29;2.33;;;2.23;;
16288;SDS011;26089;43.538;5.250;2023-04-24T00:16:56;2.87;;;2.40;;
16288;SDS011;26089;43.538;5.250;2023-04-24T00:19:23;3.27;;;2.50;;
16288;SDS011;26089;43.538;5.250;2023-04-24T00:21:50;4.07;;;2.80;;
16288;SDS011;26089;43.538;5.250;2023-04-24T00:24:17;4.90;;;2.30;;
16288;SDS011;26089;43.538;5.250;2023-04-24T00:26:46;2.47;;;2.37;;
16288;SDS011;26089;43.538;5.250;2023-04-24T00:29:13;4.27;;;2.43;;
16288;SDS011;26089;43.538;5.250;2023-04-24T00:31:40;3.00;;;2.80;;
16288;SDS011;26089;43.538;5.250;2023-04-24T00:34:07;2.27;;;2.07;;
16288;SDS011;26089;43.538;5.250;2023-04-24T00:36:35;5.13;;;2.87;;
16288;SDS011;26089;43.538;5.250;2023-04-24T00:39:02;2.37;;;2.17;;
16288;SDS011;26089;43.538;5.250;2023-04-24T00:41:29;2.97;;;2.43;;
16288;SDS011;26089;43.538;5.250;2023-04-24T00:43:58;3.30;;;2.10;;
16288;SDS011;26089;43.538;5.250;2023-04-24T00:46:25;3.13;;;2.50;;
16288;SDS011;26089;43.538;5.250;2023-04-24T00:48:52;2.03;;;1.93;;
16288;SDS011;26089;43.538;5.250;2023-04-24T00:51:19;2.63;;;2.40;;
16288;SDS011;26089;43.538;5.250;2023-04-24T00:53:46;3.30;;;2.60;;
16288;SDS011;26089;43.538;5.250;2023-04-24T00:56:13;2.73;;;2.40;;
16288;SDS011;26089;43.538;5.250;2023-04-24T00:58:41;2.67;;;2.43;;
16288;SDS011;26089;43.538;5.250;2023-04-24T01:01:09;2.70;;;2.13;;
16288;SDS011;26089;43.538;5.250;2023-04-24T01:03:37;3.07;;;2.10;;
16288;SDS011;26089;43.538;5.250;2023-04-24T01:06:04;2.30;;;2.10;;
16288;SDS011;26089;43.538;5.250;2023-04-24T01:08:32;3.00;;;2.10;;
16288;SDS011;26089;43.538;5.250;2023-04-24T01:11:00;2.80;;;2.30;;
16288;SDS011;26089;43.538;5.250;2023-04-24T01:13:30;4.47;;;2.20;;
16288;SDS011;26089;43.538;5.250;2023-04-24T01:15:57;3.07;;;2.17;;
16288;SDS011;26089;43.538;5.250;2023-04-24T01:18:26;2.80;;;1.93;;
16288;SDS011;26089;43.538;5.250;2023-04-24T01:20:54;2.03;;;1.93;;
16288;SDS011;26089;43.538;5.250;2023-04-24T01:23:25;3.00;;;2.17;;
16288;SDS011;26089;43.538;5.250;2023-04-24T01:25:52;2.50;;;2.00;;
16288;SDS011;26089;43.538;5.250;2023-04-24T01:28:19;3.03;;;2.03;;
16288;SDS011;26089;43.538;5.250;2023-04-24T01:30:47;5.43;;;2.20;;
16288;SDS011;26089;43.538;5.250;2023-04-24T01:33:14;2.97;;;2.30;;
16288;SDS011;26089;43.538;5.250;2023-04-24T01:35:41;2.20;;;2.00;;
16288;SDS011;26089;43.538;5.250;2023-04-24T01:38:09;2.47;;;2.10;;
16288;SDS011;26089;43.538;5.250;2023-04-24T01:40:37;2.80;;;2.30;;
16288;SDS011;26089;43.538;5.250;2023-04-24T01:43:04;3.30;;;1.93;;
16288;SDS011;26089;43.538;5.250;2023-04-24T01:45:31;3.43;;;1.97;;
16288;SDS011;26089;43.538;5.250;2023-04-24T01:47:58;6.97;;;3.03;;
16288;SDS011;26089;43.538;5.250;2023-04-24T01:50:26;2.80;;;2.43;;
16288;SDS011;26089;43.538;5.250;2023-04-24T01:52:53;5.50;;;2.47;;
16288;SDS011;26089;43.538;5.250;2023-04-24T01:55:20;2.10;;;2.00;;
16288;SDS011;26089;43.538;5.250;2023-04-24T01:57:49;2.50;;;2.30;;
16288;SDS011;26089;43.538;5.250;2023-04-24T02:00:18;3.63;;;2.40;;
16288;SDS011;26089;43.538;5.250;2023-04-24T02:02:45;3.50;;;2.23;;
16288;SDS011;26089;43.538;5.250;2023-04-24T02:05:12;2.40;;;2.27;;
16288;SDS011;26089;43.538;5.250;2023-04-24T02:07:40;2.37;;;2.20;;
16288;SDS011;26089;43.538;5.250;2023-04-24T02:10:07;2.43;;;2.20;;
16288;SDS011;26089;43.538;5.250;2023-04-24T02:12:35;2.57;;;1.87;;
16288;SDS011;26089;43.538;5.250;2023-04-24T02:15:03;4.73;;;2.70;;
16288;SDS011;26089;43.538;5.250;2023-04-24T02:17:31;3.77;;;2.57;;
16288;SDS011;26089;43.538;5.250;2023-04-24T02:19:58;1.90;;;1.80;;
16288;SDS011;26089;43.538;5.250;2023-04-24T02:22:25;5.07;;;2.23;;
16288;SDS011;26089;43.538;5.250;2023-04-24T02:24:52;2.73;;;2.40;;
16288;SDS011;26089;43.538;5.250;2023-04-24T02:27:19;5.17;;;2.20;;
16288;SDS011;26089;43.538;5.250;2023-04-24T02:29:46;2.70;;;2.60;;
16288;SDS011;26089;43.538;5.250;2023-04-24T02:32:14;3.33;;;1.97;;
16288;SDS011;26089;43.538;5.250;2023-04-24T02:34:41;2.43;;;2.23;;
16288;SDS011;26089;43.538;5.250;2023-04-24T02:37:08;2.77;;;2.23;;
16288;SDS011;26089;43.538;5.250;2023-04-24T02:39:35;3.20;;;2.60;;
16288;SDS011;26089;43.538;5.250;2023-04-24T02:42:02;4.00;;;2.80;;
16288;SDS011;26089;43.538;5.250;2023-04-24T02:44:30;2.53;;;2.27;;
16288;SDS011;26089;43.538;5.250;2023-04-24T02:46:57;3.80;;;2.80;;
16288;SDS011;26089;43.538;5.250;2023-04-24T02:49:25;3.03;;;2.37;;
16288;SDS011;26089;43.538;5.250;2023-04-24T02:51:52;4.47;;;2.60;;
16288;SDS011;26089;43.538;5.250;2023-04-24T02:54:19;4.10;;;2.07;;
16288;SDS011;26089;43.538;5.250;2023-04-24T02:56:46;2.43;;;2.20;;
16288;SDS011;26089;43.538;5.250;2023-04-24T02:59:13;2.50;;;2.23;;
16288;SDS011;26089;43.538;5.250;2023-04-24T03:01:40;2.33;;;2.23;;
16288;SDS011;26089;43.538;5.250;2023-04-24T03:04:07;3.30;;;2.20;;
16288;SDS011;26089;43.538;5.250;2023-04-24T03:06:36;4.10;;;2.03;;
16288;SDS011;26089;43.538;5.250;2023-04-24T03:09:03;3.03;;;2.20;;
16288;SDS011;26089;43.538;5.250;2023-04-24T03:11:30;2.63;;;2.50;;
16288;SDS011;26089;43.538;5.250;2023-04-24T03:13:57;3.87;;;2.50;;
16288;SDS011;26089;43.538;5.250;2023-04-24T03:16:24;4.37;;;2.37;;
16288;SDS011;26089;43.538;5.250;2023-04-24T03:18:51;4.17;;;2.70;;
16288;SDS011;26089;43.538;5.250;2023-04-24T03:21:18;2.60;;;2.40;;
16288;SDS011;26089;43.538;5.250;2023-04-24T03:23:47;4.47;;;2.87;;
16288;SDS011;26089;43.538;5.250;2023-04-24T03:26:14;5.27;;;3.43;;
16288;SDS011;26089;43.538;5.250;2023-04-24T03:28:41;3.40;;;2.67;;
16288;SDS011;26089;43.538;5.250;2023-04-24T03:31:07;3.87;;;2.60;;
16288;SDS011;26089;43.538;5.250;2023-04-24T03:33:35;2.97;;;2.67;;
16288;SDS011;26089;43.538;5.250;2023-04-24T03:36:02;3.90;;;3.10;;
16288;SDS011;26089;43.538;5.250;2023-04-24T03:38:30;4.93;;;3.30;;
16288;SDS011;26089;43.538;5.250;2023-04-24T03:40:58;2.93;;;2.70;;
16288;SDS011;26089;43.538;5.250;2023-04-24T03:43:25;3.97;;;3.10;;
16288;SDS011;26089;43.538;5.250;2023-04-24T03:45:53;3.23;;;3.00;;
16288;SDS011;26089;43.538;5.250;2023-04-24T03:48:20;3.70;;;2.83;;
16288;SDS011;26089;43.538;5.250;2023-04-24T03:50:47;3.37;;;2.60;;
16288;SDS011;26089;43.538;5.250;2023-04-24T03:53:14;2.80;;;2.60;;
16288;SDS011;26089;43.538;5.250;2023-04-24T03:55:41;4.43;;;3.20;;
16288;SDS011;26089;43.538;5.250;2023-04-24T03:58:09;3.63;;;2.70;;
16288;SDS011;26089;43.538;5.250;2023-04-24T04:00:36;6.63;;;3.00;;
16288;SDS011;26089;43.538;5.250;2023-04-24T04:03:05;4.63;;;2.90;;
16288;SDS011;26089;43.538;5.250;2023-04-24T04:05:32;4.60;;;2.80;;
16288;SDS011;26089;43.538;5.250;2023-04-24T04:07:59;2.80;;;2.37;;
16288;SDS011;26089;43.538;5.250;2023-04-24T04:10:26;3.20;;;2.70;;
16288;SDS011;26089;43.538;5.250;2023-04-24T04:12:53;2.93;;;2.20;;
16288;SDS011;26089;43.538;5.250;2023-04-24T04:15:21;3.77;;;2.50;;
16288;SDS011;26089;43.538;5.250;2023-04-24T04:17:48;3.07;;;2.57;;
16288;SDS011;26089;43.538;5.250;2023-04-24T04:20:15;4.27;;;2.90;;
16288;SDS011;26089;43.538;5.250;2023-04-24T04:22:42;4.53;;;2.83;;
16288;SDS011;26089;43.538;5.250;2023-04-24T04:25:09;2.97;;;2.77;;
16288;SDS011;26089;43.538;5.250;2023-04-24T04:27:38;4.30;;;2.70;;
16288;SDS011;26089;43.538;5.250;2023-04-24T04:30:07;2.60;;;2.50;;
16288;SDS011;26089;43.538;5.250;2023-04-24T04:32:36;3.80;;;2.83;;
16288;SDS011;26089;43.538;5.250;2023-04-24T04:35:03;3.10;;;2.70;;
16288;SDS011;26089;43.538;5.250;2023-04-24T04:37:31;4.07;;;2.80;;
16288;SDS011;26089;43.538;5.250;2023-04-24T04:39:59;3.13;;;2.87;;
16288;SDS011;26089;43.538;5.250;2023-04-24T04:42:31;4.03;;;2.77;;
16288;SDS011;26089;43.538;5.250;2023-04-24T04:44:59;2.70;;;2.50;;
16288;SDS011;26089;43.538;5.250;2023-04-24T04:47:26;2.90;;;2.70;;
16288;SDS011;26089;43.538;5.250;2023-04-24T04:49:55;2.70;;;2.50;;
16288;SDS011;26089;43.538;5.250;2023-04-24T04:52:22;2.60;;;2.40;;
16288;SDS011;26089;43.538;5.250;2023-04-24T04:54:51;3.57;;;3.27;;
16288;SDS011;26089;43.538;5.250;2023-04-24T04:57:18;2.47;;;2.33;;
16288;SDS011;26089;43.538;5.250;2023-04-24T04:59:45;5.07;;;2.50;;
16288;SDS011;26089;43.538;5.250;2023-04-24T05:02:12;4.17;;;2.53;;
16288;SDS011;26089;43.538;5.250;2023-04-24T05:04:40;2.60;;;2.40;;
16288;SDS011;26089;43.538;5.250;2023-04-24T05:07:08;2.93;;;2.73;;
16288;SDS011;26089;43.538;5.250;2023-04-24T05:09:35;2.57;;;2.20;;
16288;SDS011;26089;43.538;5.250;2023-04-24T05:12:02;3.30;;;3.00;;
16288;SDS011;26089;43.538;5.250;2023-04-24T05:14:29;2.77;;;2.53;;
16288;SDS011;26089;43.538;5.250;2023-04-24T05:16:56;5.47;;;3.30;;
16288;SDS011;26089;43.538;5.250;2023-04-24T05:19:23;2.83;;;2.60;;
16288;SDS011;26089;43.538;5.250;2023-04-24T05:21:50;5.57;;;3.33;;
16288;SDS011;26089;43.538;5.250;2023-04-24T05:24:18;5.80;;;2.83;;
16288;SDS011;26089;43.538;5.250;2023-04-24T05:26:46;4.07;;;3.20;;
16288;SDS011;26089;43.538;5.250;2023-04-24T05:29:13;4.63;;;2.77;;
16288;SDS011;26089;43.538;5.250;2023-04-24T05:31:40;3.77;;;2.83;;
16288;SDS011;26089;43.538;5.250;2023-04-24T05:34:07;4.27;;;2.50;;
16288;SDS011;26089;43.538;5.250;2023-04-24T05:36:35;5.03;;;2.63;;
16288;SDS011;26089;43.538;5.250;2023-04-24T05:39:02;3.00;;;2.80;;
16288;SDS011;26089;43.538;5.250;2023-04-24T05:41:31;3.23;;;2.60;;
16288;SDS011;26089;43.538;5.250;2023-04-24T05:43:58;3.97;;;2.27;;
16288;SDS011;26089;43.538;5.250;2023-04-24T05:46:25;4.73;;;2.53;;
16288;SDS011;26089;43.538;5.250;2023-04-24T05:48:52;3.63;;;2.50;;
16288;SDS011;26089;43.538;5.250;2023-04-24T05:51:19;8.73;;;2.90;;
16288;SDS011;26089;43.538;5.250;2023-04-24T05:53:46;5.73;;;2.50;;
16288;SDS011;26089;43.538;5.250;2023-04-24T05:56:13;2.50;;;2.30;;
16288;SDS011;26089;43.538;5.250;2023-04-24T05:58:42;4.10;;;2.60;;
16288;SDS011;26089;43.538;5.250;2023-04-24T06:01:09;4.73;;;2.60;;
16288;SDS011;26089;43.538;5.250;2023-04-24T06:03:36;5.30;;;2.40;;
16288;SDS011;26089;43.538;5.250;2023-04-24T06:06:04;6.20;;;2.53;;
16288;SDS011;26089;43.538;5.250;2023-04-24T06:08:32;3.90;;;2.23;;
16288;SDS011;26089;43.538;5.250;2023-04-24T06:10:59;3.60;;;2.20;;
16288;SDS011;26089;43.538;5.250;2023-04-24T06:13:26;4.90;;;3.00;;
16288;SDS011;26089;43.538;5.250;2023-04-24T06:15:54;1.70;;;1.60;;
16288;SDS011;26089;43.538;5.250;2023-04-24T06:18:22;4.27;;;2.10;;
16288;SDS011;26089;43.538;5.250;2023-04-24T06:20:48;6.30;;;2.13;;
16288;SDS011;26089;43.538;5.250;2023-04-24T06:23:16;5.60;;;2.10;;
16288;SDS011;26089;43.538;5.250;2023-04-24T06:25:43;3.17;;;1.90;;
16288;SDS011;26089;43.538;5.250;2023-04-24T06:28:10;6.20;;;2.60;;
16288;SDS011;26089;43.538;5.250;2023-04-24T06:30:38;6.07;;;2.13;;
16288;SDS011;26089;43.538;5.250;2023-04-24T06:33:07;5.93;;;1.83;;
16288;SDS011;26089;43.538;5.250;2023-04-24T06:35:34;4.50;;;2.03;;
16288;SDS011;26089;43.538;5.250;2023-04-24T06:38:02;5.27;;;1.87;;
16288;SDS011;26089;43.538;5.250;2023-04-24T06:40:29;6.87;;;2.43;;
16288;SDS011;26089;43.538;5.250;2023-04-24T06:42:57;3.87;;;2.00;;
16288;SDS011;26089;43.538;5.250;2023-04-24T06:45:25;5.93;;;1.80;;
16288;SDS011;26089;43.538;5.250;2023-04-24T06:47:52;7.17;;;2.23;;
16288;SDS011;26089;43.538;5.250;2023-04-24T06:50:20;3.50;;;2.40;;
16288;SDS011;26089;43.538;5.250;2023-04-24T06:52:47;6.07;;;2.90;;
16288;SDS011;26089;43.538;5.250;2023-04-24T06:55:14;7.77;;;2.47;;
16288;SDS011;26089;43.538;5.250;2023-04-24T06:57:42;7.00;;;2.17;;
16288;SDS011;26089;43.538;5.250;2023-04-24T07:00:10;6.13;;;2.60;;
16288;SDS011;26089;43.538;5.250;2023-04-24T07:02:38;7.13;;;2.20;;
16288;SDS011;26089;43.538;5.250;2023-04-24T07:05:05;6.17;;;2.50;;
16288;SDS011;26089;43.538;5.250;2023-04-24T07:07:34;8.77;;;2.60;;
16288;SDS011;26089;43.538;5.250;2023-04-24T07:10:03;2.90;;;1.90;;
16288;SDS011;26089;43.538;5.250;2023-04-24T07:12:30;5.83;;;2.00;;
16288;SDS011;26089;43.538;5.250;2023-04-24T07:14:58;3.77;;;1.80;;
16288;SDS011;26089;43.538;5.250;2023-04-24T07:17:25;7.33;;;2.03;;
16288;SDS011;26089;43.538;5.250;2023-04-24T07:19:52;2.70;;;1.90;;
16288;SDS011;26089;43.538;5.250;2023-04-24T07:22:19;5.60;;;2.00;;
16288;SDS011;26089;43.538;5.250;2023-04-24T07:24:47;9.20;;;3.03;;
16288;SDS011;26089;43.538;5.250;2023-04-24T07:27:14;3.47;;;1.67;;
16288;SDS011;26089;43.538;5.250;2023-04-24T07:29:41;3.03;;;1.80;;
16288;SDS011;26089;43.538;5.250;2023-04-24T07:32:08;4.50;;;1.90;;
16288;SDS011;26089;43.538;5.250;2023-04-24T07:34:35;2.60;;;2.03;;
16288;SDS011;26089;43.538;5.250;2023-04-24T07:37:02;3.20;;;1.87;;
16288;SDS011;26089;43.538;5.250;2023-04-24T07:39:29;4.53;;;2.03;;
16288;SDS011;26089;43.538;5.250;2023-04-24T07:41:58;4.90;;;1.73;;
16288;SDS011;26089;43.538;5.250;2023-04-24T07:44:26;5.73;;;1.60;;
16288;SDS011;26089;43.538;5.250;2023-04-24T07:46:53;5.00;;;2.03;;
16288;SDS011;26089;43.538;5.250;2023-04-24T07:49:20;2.23;;;1.47;;
16288;SDS011;26089;43.538;5.250;2023-04-24T07:51:48;3.80;;;1.33;;
16288;SDS011;26089;43.538;5.250;2023-04-24T07:54:15;4.40;;;1.70;;
16288;SDS011;26089;43.538;5.250;2023-04-24T07:56:42;5.53;;;1.63;;
16288;SDS011;26089;43.538;5.250;2023-04-24T07:59:11;4.10;;;1.60;;
16288;SDS011;26089;43.538;5.250;2023-04-24T08:01:38;3.93;;;1.73;;
16288;SDS011;26089;43.538;5.250;2023-04-24T08:04:05;2.50;;;1.23;;
16288;SDS011;26089;43.538;5.250;2023-04-24T08:06:32;4.30;;;1.40;;
16288;SDS011;26089;43.538;5.250;2023-04-24T08:08:59;2.43;;;1.73;;
16288;SDS011;26089;43.538;5.250;2023-04-24T08:11:26;2.50;;;1.50;;
16288;SDS011;26089;43.538;5.250;2023-04-24T08:13:53;5.73;;;1.67;;
16288;SDS011;26089;43.538;5.250;2023-04-24T08:16:22;3.60;;;1.50;;
16288;SDS011;26089;43.538;5.250;2023-04-24T08:18:49;2.73;;;1.60;;
16288;SDS011;26089;43.538;5.250;2023-04-24T08:21:17;4.50;;;1.90;;
16288;SDS011;26089;43.538;5.250;2023-04-24T08:23:44;2.83;;;1.60;;
16288;SDS011;26089;43.538;5.250;2023-04-24T08:26:11;2.83;;;1.47;;
16288;SDS011;26089;43.538;5.250;2023-04-24T08:28:39;2.47;;;1.63;;
16288;SDS011;26089;43.538;5.250;2023-04-24T08:31:06;2.90;;;1.40;;
16288;SDS011;26089;43.538;5.250;2023-04-24T08:33:34;6.30;;;1.80;;
16288;SDS011;26089;43.538;5.250;2023-04-24T08:36:02;3.93;;;1.70;;
16288;SDS011;26089;43.538;5.250;2023-04-24T08:38:30;3.70;;;1.43;;
16288;SDS011;26089;43.538;5.250;2023-04-24T08:40:58;3.20;;;1.50;;
16288;SDS011;26089;43.538;5.250;2023-04-24T08:43:25;4.37;;;1.47;;
16288;SDS011;26089;43.538;5.250;2023-04-24T08:45:55;2.67;;;1.40;;
16288;SDS011;26089;43.538;5.250;2023-04-24T08:48:24;3.13;;;1.27;;
16288;SDS011;26089;43.538;5.250;2023-04-24T08:50:54;1.50;;;1.37;;
16288;SDS011;26089;43.538;5.250;2023-04-24T08:53:22;3.63;;;1.50;;
16288;SDS011;26089;43.538;5.250;2023-04-24T08:55:51;1.57;;;1.07;;
16288;SDS011;26089;43.538;5.250;2023-04-24T08:58:22;1.40;;;1.30;;
16288;SDS011;26089;43.538;5.250;2023-04-24T09:00:51;4.33;;;1.60;;
16288;SDS011;26089;43.538;5.250;2023-04-24T09:03:20;2.37;;;1.40;;
16288;SDS011;26089;43.538;5.250;2023-04-24T09:05:48;4.80;;;1.53;;
16288;SDS011;26089;43.538;5.250;2023-04-24T09:08:17;4.33;;;1.40;;
16288;SDS011;26089;43.538;5.250;2023-04-24T09:10:45;3.07;;;1.37;;
16288;SDS011;26089;43.538;5.250;2023-04-24T09:13:13;5.00;;;1.53;;
16288;SDS011;26089;43.538;5.250;2023-04-24T09:15:40;3.53;;;1.30;;
16288;SDS011;26089;43.538;5.250;2023-04-24T09:18:08;3.33;;;1.53;;
16288;SDS011;26089;43.538;5.250;2023-04-24T09:20:35;4.03;;;1.97;;
16288;SDS011;26089;43.538;5.250;2023-04-24T09:23:29;3.13;;;1.30;;
16288;SDS011;26089;43.538;5.250;2023-04-24T09:25:57;1.50;;;1.40;;
16288;SDS011;26089;43.538;5.250;2023-04-24T09:28:26;1.93;;;1.33;;
16288;SDS011;26089;43.538;5.250;2023-04-24T09:31:02;2.37;;;1.50;;
16288;SDS011;26089;43.538;5.250;2023-04-24T09:33:33;2.03;;;1.53;;
16288;SDS011;26089;43.538;5.250;2023-04-24T09:36:00;3.90;;;1.63;;
16288;SDS011;26089;43.538;5.250;2023-04-24T09:38:32;1.70;;;1.20;;
16288;SDS011;26089;43.538;5.250;2023-04-24T09:41:01;2.50;;;1.30;;
16288;SDS011;26089;43.538;5.250;2023-04-24T09:43:29;4.87;;;1.20;;
16288;SDS011;26089;43.538;5.250;2023-04-24T09:45:56;1.90;;;1.50;;
16288;SDS011;26089;43.538;5.250;2023-04-24T09:48:31;2.10;;;1.27;;
16288;SDS011;26089;43.538;5.250;2023-04-24T09:50:58;2.00;;;1.40;;
16288;SDS011;26089;43.538;5.250;2023-04-24T09:53:26;1.00;;;1.00;;
16288;SDS011;26089;43.538;5.250;2023-04-24T09:55:55;1.13;;;1.00;;
16288;SDS011;26089;43.538;5.250;2023-04-24T09:58:25;1.37;;;1.27;;
16288;SDS011;26089;43.538;5.250;2023-04-24T10:00:53;2.03;;;1.23;;
16288;SDS011;26089;43.538;5.250;2023-04-24T10:03:23;1.30;;;1.20;;
16288;SDS011;26089;43.538;5.250;2023-04-24T10:05:51;2.87;;;1.00;;
16288;SDS011;26089;43.538;5.250;2023-04-24T10:08:18;1.23;;;1.13;;
16288;SDS011;26089;43.538;5.250;2023-04-24T10:10:46;2.10;;;1.00;;
16288;SDS011;26089;43.538;5.250;2023-04-24T10:13:15;1.20;;;1.10;;
16288;SDS011;26089;43.538;5.250;2023-04-24T10:15:42;1.17;;;0.80;;
16288;SDS011;26089;43.538;5.250;2023-04-24T10:18:09;1.20;;;0.90;;
16288;SDS011;26089;43.538;5.250;2023-04-24T10:20:37;2.00;;;1.07;;
16288;SDS011;26089;43.538;5.250;2023-04-24T10:23:06;1.10;;;1.00;;
16288;SDS011;26089;43.538;5.250;2023-04-24T10:25:34;1.80;;;1.17;;
16288;SDS011;26089;43.538;5.250;2023-04-24T10:28:02;2.20;;;1.00;;
16288;SDS011;26089;43.538;5.250;2023-04-24T10:30:31;2.50;;;1.20;;
16288;SDS011;26089;43.538;5.250;2023-04-24T10:33:01;2.97;;;1.30;;
16288;SDS011;26089;43.538;5.250;2023-04-24T10:35:30;2.67;;;1.20;;
16288;SDS011;26089;43.538;5.250;2023-04-24T10:37:59;1.77;;;1.17;;
16288;SDS011;26089;43.538;5.250;2023-04-24T10:40:30;2.13;;;1.10;;
16288;SDS011;26089;43.538;5.250;2023-04-24T10:42:59;1.17;;;0.90;;
16288;SDS011;26089;43.538;5.250;2023-04-24T10:45:28;1.30;;;1.20;;
16288;SDS011;26089;43.538;5.250;2023-04-24T10:48:00;1.93;;;1.50;;
16288;SDS011;26089;43.538;5.250;2023-04-24T10:50:29;1.50;;;1.40;;
16288;SDS011;26089;43.538;5.250;2023-04-24T10:53:11;3.70;;;1.50;;
16288;SDS011;26089;43.538;5.250;2023-04-24T10:55:44;1.57;;;1.17;;
16288;SDS011;26089;43.538;5.250;2023-04-24T10:58:13;2.00;;;1.40;;
16288;SDS011;26089;43.538;5.250;2023-04-24T11:00:42;1.50;;;1.40;;
16288;SDS011;26089;43.538;5.250;2023-04-24T11:03:23;2.43;;;2.07;;
16288;SDS011;26089;43.538;5.250;2023-04-24T11:05:52;1.60;;;1.50;;
16288;SDS011;26089;43.538;5.250;2023-04-24T11:08:26;2.00;;;1.90;;
16288;SDS011;26089;43.538;5.250;2023-04-24T11:10:56;2.27;;;1.80;;
16288;SDS011;26089;43.538;5.250;2023-04-24T11:13:26;2.97;;;1.77;;
16288;SDS011;26089;43.538;5.250;2023-04-24T11:16:13;2.10;;;1.90;;
16288;SDS011;26089;43.538;5.250;2023-04-24T11:18:43;2.53;;;1.80;;
16288;SDS011;26089;43.538;5.250;2023-04-24T11:21:16;1.70;;;1.60;;
16288;SDS011;26089;43.538;5.250;2023-04-24T11:23:44;4.47;;;2.00;;
16288;SDS011;26089;43.538;5.250;2023-04-24T11:26:12;3.00;;;2.10;;
16288;SDS011;26089;43.538;5.250;2023-04-24T11:29:05;4.10;;;2.00;;
16288;SDS011;26089;43.538;5.250;2023-04-24T11:31:37;3.13;;;1.73;;
16288;SDS011;26089;43.538;5.250;2023-04-24T11:34:09;2.37;;;1.83;;
16288;SDS011;26089;43.538;5.250;2023-04-24T11:36:38;3.27;;;1.77;;
16288;SDS011;26089;43.538;5.250;2023-04-24T11:39:06;3.50;;;1.70;;
16288;SDS011;26089;43.538;5.250;2023-04-24T11:41:33;2.73;;;1.53;;
16288;SDS011;26089;43.538;5.250;2023-04-24T11:44:00;2.47;;;1.53;;
16288;SDS011;26089;43.538;5.250;2023-04-24T11:46:29;2.47;;;1.60;;
16288;SDS011;26089;43.538;5.250;2023-04-24T11:48:57;2.87;;;1.80;;
16288;SDS011;26089;43.538;5.250;2023-04-24T11:51:26;1.87;;;1.60;;
16288;SDS011;26089;43.538;5.250;2023-04-24T11:53:53;2.83;;;1.57;;
16288;SDS011;26089;43.538;5.250;2023-04-24T11:56:21;3.83;;;1.70;;
16288;SDS011;26089;43.538;5.250;2023-04-24T11:58:48;1.60;;;1.37;;
16288;SDS011;26089;43.538;5.250;2023-04-24T12:01:17;1.57;;;1.47;;
16288;SDS011;26089;43.538;5.250;2023-04-24T12:03:47;3.43;;;1.77;;
16288;SDS011;26089;43.538;5.250;2023-04-24T12:06:16;1.70;;;1.40;;
16288;SDS011;26089;43.538;5.250;2023-04-24T12:08:46;2.27;;;1.50;;
16288;SDS011;26089;43.538;5.250;2023-04-24T12:11:15;1.57;;;1.40;;
16288;SDS011;26089;43.538;5.250;2023-04-24T12:13:44;2.10;;;1.70;;
16288;SDS011;26089;43.538;5.250;2023-04-24T12:16:12;1.67;;;1.20;;
16288;SDS011;26089;43.538;5.250;2023-04-24T12:18:42;1.30;;;1.13;;
16288;SDS011;26089;43.538;5.250;2023-04-24T12:21:20;1.80;;;1.60;;
16288;SDS011;26089;43.538;5.250;2023-04-24T12:23:50;1.47;;;1.33;;
16288;SDS011;26089;43.538;5.250;2023-04-24T12:26:20;1.53;;;1.27;;
16288;SDS011;26089;43.538;5.250;2023-04-24T12:28:48;1.40;;;1.30;;
16288;SDS011;26089;43.538;5.250;2023-04-24T12:31:16;3.20;;;1.43;;
16288;SDS011;26089;43.538;5.250;2023-04-24T12:33:43;2.50;;;1.40;;
16288;SDS011;26089;43.538;5.250;2023-04-24T12:36:10;1.37;;;1.27;;
16288;SDS011;26089;43.538;5.250;2023-04-24T12:38:38;1.83;;;1.30;;
16288;SDS011;26089;43.538;5.250;2023-04-24T12:41:11;2.13;;;1.40;;
16288;SDS011;26089;43.538;5.250;2023-04-24T12:43:40;1.47;;;1.33;;
16288;SDS011;26089;43.538;5.250;2023-04-24T12:46:17;2.77;;;1.43;;
16288;SDS011;26089;43.538;5.250;2023-04-24T12:48:44;1.50;;;1.30;;
16288;SDS011;26089;43.538;5.250;2023-04-24T12:51:11;1.47;;;1.37;;
16288;SDS011;26089;43.538;5.250;2023-04-24T12:53:38;1.63;;;1.50;;
16288;SDS011;26089;43.538;5.250;2023-04-24T12:56:05;1.43;;;1.33;;
16288;SDS011;26089;43.538;5.250;2023-04-24T12:58:33;1.63;;;1.30;;
16288;SDS011;26089;43.538;5.250;2023-04-24T13:01:00;1.57;;;1.27;;
16288;SDS011;26089;43.538;5.250;2023-04-24T13:03:27;1.97;;;1.30;;
16288;SDS011;26089;43.538;5.250;2023-04-24T13:05:54;1.83;;;1.40;;
16288;SDS011;26089;43.538;5.250;2023-04-24T13:08:21;1.83;;;1.00;;
16288;SDS011;26089;43.538;5.250;2023-04-24T13:10:49;2.27;;;1.30;;
16288;SDS011;26089;43.538;5.250;2023-04-24T13:13:17;1.27;;;1.17;;
16288;SDS011;26089;43.538;5.250;2023-04-24T13:15:45;2.20;;;1.43;;
16288;SDS011;26089;43.538;5.250;2023-04-24T13:18:12;2.00;;;0.93;;
16288;SDS011;26089;43.538;5.250;2023-04-24T13:20:39;1.00;;;1.00;;
16288;SDS011;26089;43.538;5.250;2023-04-24T13:23:06;2.70;;;0.90;;
16288;SDS011;26089;43.538;5.250;2023-04-24T13:25:34;1.90;;;1.03;;
16288;SDS011;26089;43.538;5.250;2023-04-24T13:28:02;2.83;;;0.90;;
16288;SDS011;26089;43.538;5.250;2023-04-24T13:30:29;2.20;;;1.00;;
16288;SDS011;26089;43.538;5.250;2023-04-24T13:32:58;1.33;;;0.70;;
16288;SDS011;26089;43.538;5.250;2023-04-24T13:35:25;0.97;;;0.97;;
16288;SDS011;26089;43.538;5.250;2023-04-24T13:37:52;0.97;;;0.97;;
16288;SDS011;26089;43.538;5.250;2023-04-24T13:40:19;2.33;;;0.80;;
16288;SDS011;26089;43.538;5.250;2023-04-24T13:42:46;1.23;;;0.87;;
16288;SDS011;26089;43.538;5.250;2023-04-24T13:45:13;0.90;;;0.90;;
16288;SDS011;26089;43.538;5.250;2023-04-24T13:47:40;2.13;;;0.80;;
16288;SDS011;26089;43.538;5.250;2023-04-24T13:50:09;1.80;;;0.97;;
16288;SDS011;26089;43.538;5.250;2023-04-24T13:52:36;1.13;;;0.90;;
16288;SDS011;26089;43.538;5.250;2023-04-24T13:55:03;1.97;;;1.00;;
16288;SDS011;26089;43.538;5.250;2023-04-24T13:57:31;2.60;;;0.80;;
16288;SDS011;26089;43.538;5.250;2023-04-24T13:59:58;1.70;;;0.87;;
16288;SDS011;26089;43.538;5.250;2023-04-24T14:02:26;2.70;;;1.00;;
16288;SDS011;26089;43.538;5.250;2023-04-24T14:04:53;2.00;;;0.97;;
16288;SDS011;26089;43.538;5.250;2023-04-24T14:07:21;0.83;;;0.63;;
16288;SDS011;26089;43.538;5.250;2023-04-24T14:09:48;2.63;;;0.80;;
16288;SDS011;26089;43.538;5.250;2023-04-24T14:12:16;1.30;;;0.83;;
16288;SDS011;26089;43.538;5.250;2023-04-24T14:14:44;1.87;;;0.80;;
16288;SDS011;26089;43.538;5.250;2023-04-24T14:17:13;2.30;;;0.93;;
16288;SDS011;26089;43.538;5.250;2023-04-24T14:19:40;0.93;;;0.70;;
16288;SDS011;26089;43.538;5.250;2023-04-24T14:22:07;0.80;;;0.80;;
16288;SDS011;26089;43.538;5.250;2023-04-24T14:24:35;1.43;;;0.70;;
16288;SDS011;26089;43.538;5.250;2023-04-24T14:27:02;3.63;;;1.63;;
16288;SDS011;26089;43.538;5.250;2023-04-24T14:29:29;1.00;;;1.00;;
16288;SDS011;26089;43.538;5.250;2023-04-24T14:31:56;4.37;;;1.27;;
16288;SDS011;26089;43.538;5.250;2023-04-24T14:34:23;2.77;;;1.00;;
16288;SDS011;26089;43.538;5.250;2023-04-24T14:36:50;1.33;;;0.97;;
16288;SDS011;26089;43.538;5.250;2023-04-24T14:39:18;1.20;;;1.10;;
16288;SDS011;26089;43.538;5.250;2023-04-24T14:41:46;1.07;;;0.97;;
16288;SDS011;26089;43.538;5.250;2023-04-24T14:44:13;2.00;;;0.97;;
16288;SDS011;26089;43.538;5.250;2023-04-24T14:46:41;1.10;;;1.00;;
16288;SDS011;26089;43.538;5.250;2023-04-24T14:49:08;1.80;;;0.80;;
16288;SDS011;26089;43.538;5.250;2023-04-24T14:51:36;1.00;;;0.80;;
16288;SDS011;26089;43.538;5.250;2023-04-24T14:54:03;1.90;;;0.80;;